sensor_id;sensor_type;location;lat;lon;timestamp;P1;durP1;ratioP1;P2;durP2;ratioP2
73107;SDS011;61559;50.476;15.588;2023-04-01T00:01:45;5.10;;;2.30;;
73107;SDS011;61559;50.476;15.588;2023-04-01T00:04:17;7.90;;;3.50;;
73107;SDS011;61559;50.476;15.588;2023-04-01T00:06:48;7.00;;;2.70;;
73107;SDS011;61559;50.476;15.588;2023-04-01T00:09:20;5.40;;;2.50;;
73107;SDS011;61559;50.476;15.588;2023-04-01T00:11:50;5.40;;;2.80;;
73107;SDS011;61559;50.476;15.588;2023-04-01T00:14:22;4.50;;;2.70;;
73107;SDS011;61559;50.476;15.588;2023-04-01T00:16:53;5.00;;;2.50;;
73107;SDS011;61559;50.476;15.588;2023-04-01T00:21:54;5.10;;;1.90;;
73107;SDS011;61559;50.476;15.588;2023-04-01T00:24:25;5.20;;;2.40;;
73107;SDS011;61559;50.476;15.588;2023-04-01T00:26:57;4.50;;;2.30;;
73107;SDS011;61559;50.476;15.588;2023-04-01T00:29:29;4.80;;;2.40;;
73107;SDS011;61559;50.476;15.588;2023-04-01T00:32:00;4.70;;;2.50;;
73107;SDS011;61559;50.476;15.588;2023-04-01T00:34:31;5.00;;;2.50;;
73107;SDS011;61559;50.476;15.588;2023-04-01T00:37:03;7.20;;;3.20;;
73107;SDS011;61559;50.476;15.588;2023-04-01T00:39:34;6.10;;;2.70;;
73107;SDS011;61559;50.476;15.588;2023-04-01T00:42:08;6.20;;;2.10;;
73107;SDS011;61559;50.476;15.588;2023-04-01T00:44:40;6.30;;;2.50;;
73107;SDS011;61559;50.476;15.588;2023-04-01T00:47:12;5.70;;;2.30;;
73107;SDS011;61559;50.476;15.588;2023-04-01T00:49:44;7.30;;;2.30;;
73107;SDS011;61559;50.476;15.588;2023-04-01T00:52:20;6.90;;;1.90;;
73107;SDS011;61559;50.476;15.588;2023-04-01T00:54:55;5.20;;;1.70;;
73107;SDS011;61559;50.476;15.588;2023-04-01T00:57:30;3.90;;;2.00;;
73107;SDS011;61559;50.476;15.588;2023-04-01T01:00:05;3.50;;;1.90;;
73107;SDS011;61559;50.476;15.588;2023-04-01T01:02:50;7.70;;;2.70;;
73107;SDS011;61559;50.476;15.588;2023-04-01T01:05:23;21.30;;;5.30;;
73107;SDS011;61559;50.476;15.588;2023-04-01T01:08:17;21.00;;;5.20;;
73107;SDS011;61559;50.476;15.588;2023-04-01T01:10:59;17.20;;;3.80;;
73107;SDS011;61559;50.476;15.588;2023-04-01T01:13:33;10.10;;;3.60;;
73107;SDS011;61559;50.476;15.588;2023-04-01T01:16:14;6.80;;;2.80;;
73107;SDS011;61559;50.476;15.588;2023-04-01T01:18:55;12.40;;;5.20;;
73107;SDS011;61559;50.476;15.588;2023-04-01T01:21:40;13.80;;;5.50;;
73107;SDS011;61559;50.476;15.588;2023-04-01T01:24:33;10.40;;;4.50;;
73107;SDS011;61559;50.476;15.588;2023-04-01T01:27:16;21.30;;;7.80;;
73107;SDS011;61559;50.476;15.588;2023-04-01T01:29:54;21.90;;;9.30;;
73107;SDS011;61559;50.476;15.588;2023-04-01T01:32:41;10.00;;;4.40;;
73107;SDS011;61559;50.476;15.588;2023-04-01T01:38:00;8.80;;;4.40;;
73107;SDS011;61559;50.476;15.588;2023-04-01T01:40:33;12.90;;;4.60;;
73107;SDS011;61559;50.476;15.588;2023-04-01T01:43:08;30.30;;;12.10;;
73107;SDS011;61559;50.476;15.588;2023-04-01T01:45:42;6.50;;;3.60;;
73107;SDS011;61559;50.476;15.588;2023-04-01T01:48:17;7.60;;;2.60;;
73107;SDS011;61559;50.476;15.588;2023-04-01T01:50:49;6.60;;;2.70;;
73107;SDS011;61559;50.476;15.588;2023-04-01T01:53:21;5.70;;;2.40;;
73107;SDS011;61559;50.476;15.588;2023-04-01T02:00:55;7.70;;;2.70;;
73107;SDS011;61559;50.476;15.588;2023-04-01T02:03:29;6.70;;;2.70;;
73107;SDS011;61559;50.476;15.588;2023-04-01T02:06:04;5.40;;;2.40;;
73107;SDS011;61559;50.476;15.588;2023-04-01T02:08:39;4.00;;;2.30;;
73107;SDS011;61559;50.476;15.588;2023-04-01T02:11:13;4.00;;;2.40;;
73107;SDS011;61559;50.476;15.588;2023-04-01T02:13:49;5.80;;;2.50;;
73107;SDS011;61559;50.476;15.588;2023-04-01T02:16:25;5.00;;;2.30;;
73107;SDS011;61559;50.476;15.588;2023-04-01T02:19:02;5.40;;;2.50;;
73107;SDS011;61559;50.476;15.588;2023-04-01T02:21:36;7.40;;;3.10;;
73107;SDS011;61559;50.476;15.588;2023-04-01T02:24:09;3.90;;;2.80;;
73107;SDS011;61559;50.476;15.588;2023-04-01T02:26:43;5.50;;;2.70;;
73107;SDS011;61559;50.476;15.588;2023-04-01T02:29:15;4.30;;;2.00;;
73107;SDS011;61559;50.476;15.588;2023-04-01T02:31:49;4.20;;;2.60;;
73107;SDS011;61559;50.476;15.588;2023-04-01T02:34:22;6.10;;;2.20;;
73107;SDS011;61559;50.476;15.588;2023-04-01T02:36:54;3.40;;;2.10;;
73107;SDS011;61559;50.476;15.588;2023-04-01T02:39:26;7.20;;;3.00;;
73107;SDS011;61559;50.476;15.588;2023-04-01T02:41:57;6.30;;;3.20;;
73107;SDS011;61559;50.476;15.588;2023-04-01T02:44:29;8.10;;;2.90;;
73107;SDS011;61559;50.476;15.588;2023-04-01T02:47:00;6.30;;;2.80;;
73107;SDS011;61559;50.476;15.588;2023-04-01T02:49:32;4.50;;;3.00;;
73107;SDS011;61559;50.476;15.588;2023-04-01T02:52:03;7.20;;;3.10;;
73107;SDS011;61559;50.476;15.588;2023-04-01T02:54:34;2.80;;;2.10;;
73107;SDS011;61559;50.476;15.588;2023-04-01T02:57:06;6.70;;;2.90;;
73107;SDS011;61559;50.476;15.588;2023-04-01T02:59:37;4.70;;;2.40;;
73107;SDS011;61559;50.476;15.588;2023-04-01T03:02:08;4.70;;;2.50;;
73107;SDS011;61559;50.476;15.588;2023-04-01T03:07:09;4.20;;;3.00;;
73107;SDS011;61559;50.476;15.588;2023-04-01T03:09:41;3.80;;;2.50;;
73107;SDS011;61559;50.476;15.588;2023-04-01T03:12:12;6.30;;;2.90;;
73107;SDS011;61559;50.476;15.588;2023-04-01T03:14:44;5.20;;;2.80;;
73107;SDS011;61559;50.476;15.588;2023-04-01T03:17:15;3.50;;;2.20;;
73107;SDS011;61559;50.476;15.588;2023-04-01T03:22:16;4.60;;;2.10;;
73107;SDS011;61559;50.476;15.588;2023-04-01T03:24:49;4.70;;;2.70;;
73107;SDS011;61559;50.476;15.588;2023-04-01T03:27:20;5.40;;;2.70;;
73107;SDS011;61559;50.476;15.588;2023-04-01T03:29:51;2.50;;;2.20;;
73107;SDS011;61559;50.476;15.588;2023-04-01T03:32:22;5.60;;;2.50;;
73107;SDS011;61559;50.476;15.588;2023-04-01T03:34:53;3.60;;;2.40;;
73107;SDS011;61559;50.476;15.588;2023-04-01T03:37:24;2.50;;;2.20;;
73107;SDS011;61559;50.476;15.588;2023-04-01T03:39:56;3.60;;;2.60;;
73107;SDS011;61559;50.476;15.588;2023-04-01T03:42:29;4.20;;;2.50;;
73107;SDS011;61559;50.476;15.588;2023-04-01T03:45:00;4.00;;;2.70;;
73107;SDS011;61559;50.476;15.588;2023-04-01T03:47:32;2.40;;;2.00;;
73107;SDS011;61559;50.476;15.588;2023-04-01T03:52:33;4.70;;;2.50;;
73107;SDS011;61559;50.476;15.588;2023-04-01T03:55:04;3.30;;;2.20;;
73107;SDS011;61559;50.476;15.588;2023-04-01T03:57:36;3.10;;;2.40;;
73107;SDS011;61559;50.476;15.588;2023-04-01T04:00:08;3.90;;;2.10;;
73107;SDS011;61559;50.476;15.588;2023-04-01T04:02:40;3.40;;;1.90;;
73107;SDS011;61559;50.476;15.588;2023-04-01T04:05:12;4.10;;;2.30;;
73107;SDS011;61559;50.476;15.588;2023-04-01T04:07:43;3.00;;;2.10;;
73107;SDS011;61559;50.476;15.588;2023-04-01T04:10:14;3.80;;;2.30;;
73107;SDS011;61559;50.476;15.588;2023-04-01T04:15:15;2.70;;;1.50;;
73107;SDS011;61559;50.476;15.588;2023-04-01T04:17:46;3.80;;;2.20;;
73107;SDS011;61559;50.476;15.588;2023-04-01T04:20:17;3.40;;;2.10;;
73107;SDS011;61559;50.476;15.588;2023-04-01T04:22:49;2.20;;;2.00;;
73107;SDS011;61559;50.476;15.588;2023-04-01T04:25:19;2.50;;;2.30;;
73107;SDS011;61559;50.476;15.588;2023-04-01T04:27:50;3.10;;;2.10;;
73107;SDS011;61559;50.476;15.588;2023-04-01T04:32:51;3.50;;;2.00;;
73107;SDS011;61559;50.476;15.588;2023-04-01T04:35:22;2.60;;;1.90;;
73107;SDS011;61559;50.476;15.588;2023-04-01T04:37:53;4.90;;;2.20;;
73107;SDS011;61559;50.476;15.588;2023-04-01T04:40:24;2.40;;;2.10;;
73107;SDS011;61559;50.476;15.588;2023-04-01T04:42:55;2.50;;;2.10;;
73107;SDS011;61559;50.476;15.588;2023-04-01T04:45:26;2.20;;;1.90;;
73107;SDS011;61559;50.476;15.588;2023-04-01T04:47:58;2.00;;;1.80;;
73107;SDS011;61559;50.476;15.588;2023-04-01T04:50:29;3.70;;;2.00;;
73107;SDS011;61559;50.476;15.588;2023-04-01T04:53:00;2.40;;;1.90;;
73107;SDS011;61559;50.476;15.588;2023-04-01T04:55:31;1.80;;;1.40;;
73107;SDS011;61559;50.476;15.588;2023-04-01T04:58:02;3.40;;;1.70;;
73107;SDS011;61559;50.476;15.588;2023-04-01T05:03:03;3.70;;;2.40;;
73107;SDS011;61559;50.476;15.588;2023-04-01T05:05:35;7.90;;;4.60;;
73107;SDS011;61559;50.476;15.588;2023-04-01T05:08:06;8.70;;;5.40;;
73107;SDS011;61559;50.476;15.588;2023-04-01T05:10:37;5.30;;;3.90;;
73107;SDS011;61559;50.476;15.588;2023-04-01T05:13:08;6.70;;;6.00;;
73107;SDS011;61559;50.476;15.588;2023-04-01T05:18:09;3.80;;;3.20;;
73107;SDS011;61559;50.476;15.588;2023-04-01T05:20:45;3.00;;;2.70;;
73107;SDS011;61559;50.476;15.588;2023-04-01T05:23:17;8.70;;;4.60;;
73107;SDS011;61559;50.476;15.588;2023-04-01T05:25:49;6.40;;;3.50;;
73107;SDS011;61559;50.476;15.588;2023-04-01T05:28:21;7.00;;;4.20;;
73107;SDS011;61559;50.476;15.588;2023-04-01T05:33:21;5.10;;;2.90;;
73107;SDS011;61559;50.476;15.588;2023-04-01T05:35:53;6.20;;;3.50;;
73107;SDS011;61559;50.476;15.588;2023-04-01T05:38:25;7.40;;;3.50;;
73107;SDS011;61559;50.476;15.588;2023-04-01T05:41:00;5.90;;;4.60;;
73107;SDS011;61559;50.476;15.588;2023-04-01T05:43:31;7.10;;;4.40;;
73107;SDS011;61559;50.476;15.588;2023-04-01T05:46:04;25.10;;;9.40;;
73107;SDS011;61559;50.476;15.588;2023-04-01T05:51:05;44.50;;;14.60;;
73107;SDS011;61559;50.476;15.588;2023-04-01T05:53:41;41.20;;;11.90;;
73107;SDS011;61559;50.476;15.588;2023-04-01T05:56:12;29.90;;;10.60;;
73107;SDS011;61559;50.476;15.588;2023-04-01T05:58:44;39.90;;;12.60;;
73107;SDS011;61559;50.476;15.588;2023-04-01T06:01:20;20.30;;;7.60;;
73107;SDS011;61559;50.476;15.588;2023-04-01T06:03:51;33.50;;;12.10;;
73107;SDS011;61559;50.476;15.588;2023-04-01T06:06:24;19.60;;;7.80;;
73107;SDS011;61559;50.476;15.588;2023-04-01T06:08:56;31.50;;;11.20;;
73107;SDS011;61559;50.476;15.588;2023-04-01T06:11:35;28.20;;;9.50;;
73107;SDS011;61559;50.476;15.588;2023-04-01T06:14:17;42.00;;;17.30;;
73107;SDS011;61559;50.476;15.588;2023-04-01T06:17:03;26.20;;;10.40;;
73107;SDS011;61559;50.476;15.588;2023-04-01T06:19:47;17.30;;;7.20;;
73107;SDS011;61559;50.476;15.588;2023-04-01T06:22:36;26.90;;;9.30;;
73107;SDS011;61559;50.476;15.588;2023-04-01T06:25:20;17.00;;;7.00;;
73107;SDS011;61559;50.476;15.588;2023-04-01T06:31:02;18.80;;;6.80;;
73107;SDS011;61559;50.476;15.588;2023-04-01T06:33:42;15.60;;;6.50;;
73107;SDS011;61559;50.476;15.588;2023-04-01T06:42:14;12.50;;;5.00;;
73107;SDS011;61559;50.476;15.588;2023-04-01T06:45:03;34.10;;;10.00;;
73107;SDS011;61559;50.476;15.588;2023-04-01T06:47:49;14.00;;;5.20;;
73107;SDS011;61559;50.476;15.588;2023-04-01T06:50:30;13.60;;;5.40;;
73107;SDS011;61559;50.476;15.588;2023-04-01T06:53:06;10.30;;;3.90;;
73107;SDS011;61559;50.476;15.588;2023-04-01T06:55:46;8.70;;;4.80;;
73107;SDS011;61559;50.476;15.588;2023-04-01T06:58:22;10.60;;;4.10;;
73107;SDS011;61559;50.476;15.588;2023-04-01T07:00:57;7.10;;;3.20;;
73107;SDS011;61559;50.476;15.588;2023-04-01T07:03:32;15.40;;;5.90;;
73107;SDS011;61559;50.476;15.588;2023-04-01T07:06:08;16.40;;;8.40;;
73107;SDS011;61559;50.476;15.588;2023-04-01T07:08:43;11.00;;;6.00;;
73107;SDS011;61559;50.476;15.588;2023-04-01T07:11:17;12.80;;;5.90;;
73107;SDS011;61559;50.476;15.588;2023-04-01T07:13:57;6.60;;;3.70;;
73107;SDS011;61559;50.476;15.588;2023-04-01T07:16:32;17.70;;;6.30;;
73107;SDS011;61559;50.476;15.588;2023-04-01T07:19:06;12.50;;;5.90;;
73107;SDS011;61559;50.476;15.588;2023-04-01T07:21:44;10.40;;;5.40;;
73107;SDS011;61559;50.476;15.588;2023-04-01T07:24:21;15.50;;;7.00;;
73107;SDS011;61559;50.476;15.588;2023-04-01T07:26:55;11.60;;;5.40;;
73107;SDS011;61559;50.476;15.588;2023-04-01T07:29:26;9.80;;;4.00;;
73107;SDS011;61559;50.476;15.588;2023-04-01T07:34:37;7.30;;;3.60;;
73107;SDS011;61559;50.476;15.588;2023-04-01T07:37:18;7.60;;;3.90;;
73107;SDS011;61559;50.476;15.588;2023-04-01T07:39:59;8.80;;;4.30;;
73107;SDS011;61559;50.476;15.588;2023-04-01T07:42:42;9.60;;;5.20;;
73107;SDS011;61559;50.476;15.588;2023-04-01T07:45:26;19.60;;;7.70;;
73107;SDS011;61559;50.476;15.588;2023-04-01T07:53:19;15.80;;;9.10;;
73107;SDS011;61559;50.476;15.588;2023-04-01T07:56:02;10.90;;;4.90;;
73107;SDS011;61559;50.476;15.588;2023-04-01T07:58:43;11.50;;;5.70;;
73107;SDS011;61559;50.476;15.588;2023-04-01T08:01:24;14.60;;;5.90;;
73107;SDS011;61559;50.476;15.588;2023-04-01T08:04:09;16.20;;;7.00;;
73107;SDS011;61559;50.476;15.588;2023-04-01T08:06:54;20.00;;;9.90;;
73107;SDS011;61559;50.476;15.588;2023-04-01T08:09:33;46.30;;;16.10;;
73107;SDS011;61559;50.476;15.588;2023-04-01T08:12:17;19.10;;;7.10;;
73107;SDS011;61559;50.476;15.588;2023-04-01T08:14:59;12.70;;;5.40;;
73107;SDS011;61559;50.476;15.588;2023-04-01T08:17:41;17.30;;;6.30;;
73107;SDS011;61559;50.476;15.588;2023-04-01T08:20:22;13.60;;;5.60;;
73107;SDS011;61559;50.476;15.588;2023-04-01T08:22:58;11.10;;;3.90;;
73107;SDS011;61559;50.476;15.588;2023-04-01T08:25:37;6.30;;;3.80;;
73107;SDS011;61559;50.476;15.588;2023-04-01T08:28:13;7.40;;;3.00;;
73107;SDS011;61559;50.476;15.588;2023-04-01T08:30:50;8.70;;;5.70;;
73107;SDS011;61559;50.476;15.588;2023-04-01T08:33:25;10.50;;;5.10;;
73107;SDS011;61559;50.476;15.588;2023-04-01T08:35:59;11.80;;;5.30;;
73107;SDS011;61559;50.476;15.588;2023-04-01T08:38:36;7.30;;;3.80;;
73107;SDS011;61559;50.476;15.588;2023-04-01T08:41:19;8.00;;;3.70;;
73107;SDS011;61559;50.476;15.588;2023-04-01T08:53:24;10.10;;;4.40;;
73107;SDS011;61559;50.476;15.588;2023-04-01T08:56:12;5.90;;;2.80;;
73107;SDS011;61559;50.476;15.588;2023-04-01T08:58:57;9.40;;;2.60;;
73107;SDS011;61559;50.476;15.588;2023-04-01T09:01:46;4.10;;;1.70;;
73107;SDS011;61559;50.476;15.588;2023-04-01T09:04:40;6.90;;;3.00;;
73107;SDS011;61559;50.476;15.588;2023-04-01T09:07:32;4.50;;;1.60;;
73107;SDS011;61559;50.476;15.588;2023-04-01T09:10:17;5.20;;;2.10;;
73107;SDS011;61559;50.476;15.588;2023-04-01T09:13:23;6.70;;;2.30;;
73107;SDS011;61559;50.476;15.588;2023-04-01T09:16:15;4.90;;;1.70;;
73107;SDS011;61559;50.476;15.588;2023-04-01T09:22:09;4.70;;;2.20;;
73107;SDS011;61559;50.476;15.588;2023-04-01T09:27:55;9.10;;;2.70;;
73107;SDS011;61559;50.476;15.588;2023-04-01T09:30:34;6.20;;;2.40;;
73107;SDS011;61559;50.476;15.588;2023-04-01T09:33:46;7.20;;;2.40;;
73107;SDS011;61559;50.476;15.588;2023-04-01T09:36:43;8.90;;;3.00;;
73107;SDS011;61559;50.476;15.588;2023-04-01T09:42:15;18.20;;;6.70;;
73107;SDS011;61559;50.476;15.588;2023-04-01T09:45:08;22.00;;;8.40;;
73107;SDS011;61559;50.476;15.588;2023-04-01T09:47:51;10.20;;;4.50;;
73107;SDS011;61559;50.476;15.588;2023-04-01T09:50:35;11.60;;;4.70;;
73107;SDS011;61559;50.476;15.588;2023-04-01T09:53:17;12.30;;;4.30;;
73107;SDS011;61559;50.476;15.588;2023-04-01T09:56:13;5.50;;;2.20;;
73107;SDS011;61559;50.476;15.588;2023-04-01T10:14:27;11.50;;;4.60;;
73107;SDS011;61559;50.476;15.588;2023-04-01T10:17:40;8.50;;;3.40;;
73107;SDS011;61559;50.476;15.588;2023-04-01T10:24:09;6.20;;;2.70;;
73107;SDS011;61559;50.476;15.588;2023-04-01T10:27:07;4.60;;;2.10;;
73107;SDS011;61559;50.476;15.588;2023-04-01T10:39:08;7.50;;;3.50;;
73107;SDS011;61559;50.476;15.588;2023-04-01T10:45:30;7.60;;;2.50;;
73107;SDS011;61559;50.476;15.588;2023-04-01T10:48:23;7.00;;;2.10;;
73107;SDS011;61559;50.476;15.588;2023-04-01T10:51:21;5.10;;;2.30;;
73107;SDS011;61559;50.476;15.588;2023-04-01T10:54:21;7.70;;;2.70;;
73107;SDS011;61559;50.476;15.588;2023-04-01T10:57:14;5.60;;;3.10;;
73107;SDS011;61559;50.476;15.588;2023-04-01T11:00:19;3.10;;;2.60;;
73107;SDS011;61559;50.476;15.588;2023-04-01T11:03:13;2.50;;;1.70;;
73107;SDS011;61559;50.476;15.588;2023-04-01T11:06:12;4.70;;;1.60;;
73107;SDS011;61559;50.476;15.588;2023-04-01T11:21:47;6.30;;;1.30;;
73107;SDS011;61559;50.476;15.588;2023-04-01T11:24:28;2.80;;;1.20;;
73107;SDS011;61559;50.476;15.588;2023-04-01T11:27:23;3.00;;;1.00;;
73107;SDS011;61559;50.476;15.588;2023-04-01T11:30:11;2.90;;;1.30;;
73107;SDS011;61559;50.476;15.588;2023-04-01T11:32:51;3.10;;;1.00;;
73107;SDS011;61559;50.476;15.588;2023-04-01T11:35:32;2.40;;;1.20;;
73107;SDS011;61559;50.476;15.588;2023-04-01T11:38:17;5.20;;;2.00;;
73107;SDS011;61559;50.476;15.588;2023-04-01T11:40:57;5.80;;;1.70;;
73107;SDS011;61559;50.476;15.588;2023-04-01T11:43:39;3.40;;;2.00;;
73107;SDS011;61559;50.476;15.588;2023-04-01T11:46:19;3.30;;;1.80;;
73107;SDS011;61559;50.476;15.588;2023-04-01T11:49:03;3.60;;;1.50;;
73107;SDS011;61559;50.476;15.588;2023-04-01T11:52:02;2.20;;;1.40;;
73107;SDS011;61559;50.476;15.588;2023-04-01T11:57:54;4.10;;;1.20;;
73107;SDS011;61559;50.476;15.588;2023-04-01T12:00:40;2.10;;;1.10;;
73107;SDS011;61559;50.476;15.588;2023-04-01T12:03:36;3.90;;;1.50;;
73107;SDS011;61559;50.476;15.588;2023-04-01T12:06:18;3.60;;;1.40;;
73107;SDS011;61559;50.476;15.588;2023-04-01T12:09:00;2.20;;;1.10;;
73107;SDS011;61559;50.476;15.588;2023-04-01T12:11:44;2.50;;;1.30;;
73107;SDS011;61559;50.476;15.588;2023-04-01T12:14:24;1.20;;;1.00;;
73107;SDS011;61559;50.476;15.588;2023-04-01T12:17:03;2.40;;;1.40;;
73107;SDS011;61559;50.476;15.588;2023-04-01T12:19:45;3.30;;;1.30;;
73107;SDS011;61559;50.476;15.588;2023-04-01T12:22:26;2.20;;;1.00;;
73107;SDS011;61559;50.476;15.588;2023-04-01T12:25:13;2.30;;;1.40;;
73107;SDS011;61559;50.476;15.588;2023-04-01T12:27:55;1.60;;;1.00;;
73107;SDS011;61559;50.476;15.588;2023-04-01T12:30:41;1.10;;;0.80;;
73107;SDS011;61559;50.476;15.588;2023-04-01T12:33:35;1.10;;;0.60;;
73107;SDS011;61559;50.476;15.588;2023-04-01T12:36:20;1.30;;;0.70;;
73107;SDS011;61559;50.476;15.588;2023-04-01T12:39:11;1.00;;;0.80;;
73107;SDS011;61559;50.476;15.588;2023-04-01T12:41:55;1.80;;;0.70;;
73107;SDS011;61559;50.476;15.588;2023-04-01T12:48:01;0.40;;;0.40;;
73107;SDS011;61559;50.476;15.588;2023-04-01T12:50:56;0.70;;;0.40;;
73107;SDS011;61559;50.476;15.588;2023-04-01T12:53:44;2.30;;;0.60;;
73107;SDS011;61559;50.476;15.588;2023-04-01T12:56:36;4.00;;;1.70;;
73107;SDS011;61559;50.476;15.588;2023-04-01T12:59:24;2.40;;;1.90;;
73107;SDS011;61559;50.476;15.588;2023-04-01T13:02:14;1.50;;;1.00;;
73107;SDS011;61559;50.476;15.588;2023-04-01T13:05:18;0.80;;;0.70;;
73107;SDS011;61559;50.476;15.588;2023-04-01T13:08:03;1.70;;;1.00;;
73107;SDS011;61559;50.476;15.588;2023-04-01T13:10:52;4.70;;;1.00;;
73107;SDS011;61559;50.476;15.588;2023-04-01T13:13:37;2.10;;;0.80;;
73107;SDS011;61559;50.476;15.588;2023-04-01T13:16:20;3.40;;;1.10;;
73107;SDS011;61559;50.476;15.588;2023-04-01T13:18:57;3.90;;;0.70;;
73107;SDS011;61559;50.476;15.588;2023-04-01T13:21:38;9.70;;;2.40;;
73107;SDS011;61559;50.476;15.588;2023-04-01T13:24:24;4.20;;;1.50;;
73107;SDS011;61559;50.476;15.588;2023-04-01T13:27:08;3.20;;;1.00;;
73107;SDS011;61559;50.476;15.588;2023-04-01T13:29:49;1.30;;;1.20;;
73107;SDS011;61559;50.476;15.588;2023-04-01T13:32:32;1.70;;;0.70;;
73107;SDS011;61559;50.476;15.588;2023-04-01T13:35:23;0.90;;;0.80;;
73107;SDS011;61559;50.476;15.588;2023-04-01T13:38:08;1.40;;;0.80;;
73107;SDS011;61559;50.476;15.588;2023-04-01T13:40:50;4.10;;;2.10;;
73107;SDS011;61559;50.476;15.588;2023-04-01T13:43:31;1.80;;;1.00;;
73107;SDS011;61559;50.476;15.588;2023-04-01T13:46:12;1.70;;;1.00;;
73107;SDS011;61559;50.476;15.588;2023-04-01T13:48:59;3.60;;;1.20;;
73107;SDS011;61559;50.476;15.588;2023-04-01T13:54:53;11.60;;;7.50;;
73107;SDS011;61559;50.476;15.588;2023-04-01T13:57:46;11.90;;;6.20;;
73107;SDS011;61559;50.476;15.588;2023-04-01T14:00:52;27.80;;;14.40;;
73107;SDS011;61559;50.476;15.588;2023-04-01T14:03:37;9.70;;;4.70;;
73107;SDS011;61559;50.476;15.588;2023-04-01T14:06:20;3.30;;;2.00;;
73107;SDS011;61559;50.476;15.588;2023-04-01T14:09:06;7.20;;;4.30;;
73107;SDS011;61559;50.476;15.588;2023-04-01T14:11:53;5.60;;;2.70;;
73107;SDS011;61559;50.476;15.588;2023-04-01T14:14:36;3.90;;;2.20;;
73107;SDS011;61559;50.476;15.588;2023-04-01T14:17:37;2.90;;;2.10;;
73107;SDS011;61559;50.476;15.588;2023-04-01T14:20:26;2.10;;;1.40;;
73107;SDS011;61559;50.476;15.588;2023-04-01T14:23:11;1.80;;;1.30;;
73107;SDS011;61559;50.476;15.588;2023-04-01T14:29:20;1.90;;;1.10;;
73107;SDS011;61559;50.476;15.588;2023-04-01T14:32:16;1.50;;;1.40;;
73107;SDS011;61559;50.476;15.588;2023-04-01T14:38:12;1.30;;;1.00;;
73107;SDS011;61559;50.476;15.588;2023-04-01T14:40:55;1.10;;;0.80;;
73107;SDS011;61559;50.476;15.588;2023-04-01T14:43:44;3.50;;;2.30;;
73107;SDS011;61559;50.476;15.588;2023-04-01T14:49:32;2.50;;;1.80;;
73107;SDS011;61559;50.476;15.588;2023-04-01T14:52:23;3.20;;;2.20;;
73107;SDS011;61559;50.476;15.588;2023-04-01T14:54:57;9.20;;;5.70;;
73107;SDS011;61559;50.476;15.588;2023-04-01T14:57:40;6.80;;;3.80;;
73107;SDS011;61559;50.476;15.588;2023-04-01T15:00:13;4.00;;;2.60;;
73107;SDS011;61559;50.476;15.588;2023-04-01T15:02:49;6.70;;;4.50;;
73107;SDS011;61559;50.476;15.588;2023-04-01T15:05:32;4.20;;;3.00;;
73107;SDS011;61559;50.476;15.588;2023-04-01T15:08:18;3.60;;;1.70;;
73107;SDS011;61559;50.476;15.588;2023-04-01T15:11:13;4.50;;;1.90;;
73107;SDS011;61559;50.476;15.588;2023-04-01T15:16:54;2.60;;;1.20;;
73107;SDS011;61559;50.476;15.588;2023-04-01T15:22:18;1.70;;;1.10;;
73107;SDS011;61559;50.476;15.588;2023-04-01T15:25:04;3.00;;;1.30;;
73107;SDS011;61559;50.476;15.588;2023-04-01T15:27:48;3.40;;;1.60;;
73107;SDS011;61559;50.476;15.588;2023-04-01T15:30:29;2.20;;;1.20;;
73107;SDS011;61559;50.476;15.588;2023-04-01T15:36:11;2.00;;;1.10;;
73107;SDS011;61559;50.476;15.588;2023-04-01T15:39:00;1.90;;;1.40;;
73107;SDS011;61559;50.476;15.588;2023-04-01T15:42:04;3.90;;;2.20;;
73107;SDS011;61559;50.476;15.588;2023-04-01T15:44:57;2.50;;;1.70;;
73107;SDS011;61559;50.476;15.588;2023-04-01T15:47:38;2.00;;;1.10;;
73107;SDS011;61559;50.476;15.588;2023-04-01T15:50:21;1.60;;;1.20;;
73107;SDS011;61559;50.476;15.588;2023-04-01T15:53:05;1.40;;;1.10;;
73107;SDS011;61559;50.476;15.588;2023-04-01T15:55:54;2.00;;;1.20;;
73107;SDS011;61559;50.476;15.588;2023-04-01T15:58:42;2.10;;;1.20;;
73107;SDS011;61559;50.476;15.588;2023-04-01T16:01:27;6.80;;;3.90;;
73107;SDS011;61559;50.476;15.588;2023-04-01T16:04:15;2.20;;;1.50;;
73107;SDS011;61559;50.476;15.588;2023-04-01T16:07:03;1.90;;;0.90;;
73107;SDS011;61559;50.476;15.588;2023-04-01T16:09:51;1.10;;;0.70;;
73107;SDS011;61559;50.476;15.588;2023-04-01T16:12:38;0.80;;;0.20;;
73107;SDS011;61559;50.476;15.588;2023-04-01T16:15:20;0.60;;;0.60;;
73107;SDS011;61559;50.476;15.588;2023-04-01T16:18:04;1.10;;;1.00;;
73107;SDS011;61559;50.476;15.588;2023-04-01T16:20:49;4.00;;;2.80;;
73107;SDS011;61559;50.476;15.588;2023-04-01T16:23:26;5.00;;;2.50;;
73107;SDS011;61559;50.476;15.588;2023-04-01T16:26:07;2.70;;;1.80;;
73107;SDS011;61559;50.476;15.588;2023-04-01T16:28:50;1.10;;;0.90;;
73107;SDS011;61559;50.476;15.588;2023-04-01T16:31:29;0.70;;;0.60;;
73107;SDS011;61559;50.476;15.588;2023-04-01T16:34:07;2.60;;;1.60;;
73107;SDS011;61559;50.476;15.588;2023-04-01T16:36:44;1.80;;;1.20;;
73107;SDS011;61559;50.476;15.588;2023-04-01T16:39:22;1.40;;;1.00;;
73107;SDS011;61559;50.476;15.588;2023-04-01T16:42:09;1.70;;;0.90;;
73107;SDS011;61559;50.476;15.588;2023-04-01T16:44:52;1.00;;;0.60;;
73107;SDS011;61559;50.476;15.588;2023-04-01T16:47:30;1.20;;;0.80;;
73107;SDS011;61559;50.476;15.588;2023-04-01T16:50:11;1.10;;;0.90;;
73107;SDS011;61559;50.476;15.588;2023-04-01T16:55:43;3.60;;;2.20;;
73107;SDS011;61559;50.476;15.588;2023-04-01T16:58:20;4.50;;;1.90;;
73107;SDS011;61559;50.476;15.588;2023-04-01T17:00:58;3.10;;;1.70;;
73107;SDS011;61559;50.476;15.588;2023-04-01T17:03:34;2.90;;;1.40;;
73107;SDS011;61559;50.476;15.588;2023-04-01T17:06:14;2.50;;;1.40;;
73107;SDS011;61559;50.476;15.588;2023-04-01T17:09:02;2.10;;;1.20;;
73107;SDS011;61559;50.476;15.588;2023-04-01T17:11:47;2.30;;;1.40;;
73107;SDS011;61559;50.476;15.588;2023-04-01T17:14:25;2.50;;;1.40;;
73107;SDS011;61559;50.476;15.588;2023-04-01T17:17:12;2.10;;;1.20;;
73107;SDS011;61559;50.476;15.588;2023-04-01T17:20:10;1.40;;;1.00;;
73107;SDS011;61559;50.476;15.588;2023-04-01T17:22:52;1.00;;;0.90;;
73107;SDS011;61559;50.476;15.588;2023-04-01T17:25:37;2.30;;;1.10;;
73107;SDS011;61559;50.476;15.588;2023-04-01T17:28:19;1.50;;;1.30;;
73107;SDS011;61559;50.476;15.588;2023-04-01T17:31:04;1.50;;;1.40;;
73107;SDS011;61559;50.476;15.588;2023-04-01T17:33:50;2.40;;;1.90;;
73107;SDS011;61559;50.476;15.588;2023-04-01T17:36:32;4.00;;;1.50;;
73107;SDS011;61559;50.476;15.588;2023-04-01T17:42:16;1.20;;;1.00;;
73107;SDS011;61559;50.476;15.588;2023-04-01T17:44:53;1.20;;;1.10;;
73107;SDS011;61559;50.476;15.588;2023-04-01T17:47:44;3.00;;;1.80;;
73107;SDS011;61559;50.476;15.588;2023-04-01T17:50:30;1.90;;;1.40;;
73107;SDS011;61559;50.476;15.588;2023-04-01T17:53:19;3.70;;;1.70;;
73107;SDS011;61559;50.476;15.588;2023-04-01T17:56:02;1.60;;;1.20;;
73107;SDS011;61559;50.476;15.588;2023-04-01T17:58:43;2.50;;;1.30;;
73107;SDS011;61559;50.476;15.588;2023-04-01T18:01:19;1.30;;;1.10;;
73107;SDS011;61559;50.476;15.588;2023-04-01T18:04:04;2.40;;;1.50;;
73107;SDS011;61559;50.476;15.588;2023-04-01T18:06:49;2.70;;;1.50;;
73107;SDS011;61559;50.476;15.588;2023-04-01T18:09:36;1.70;;;1.20;;
73107;SDS011;61559;50.476;15.588;2023-04-01T18:12:19;2.10;;;1.30;;
73107;SDS011;61559;50.476;15.588;2023-04-01T18:15:14;1.80;;;1.40;;